sensor_id;sensor_type;location;lat;lon;timestamp;P1;durP1;ratioP1;P2;durP2;ratioP2
64938;SDS011;51453;47.738;7.420;2023-03-16T00:01:56;16.83;;;7.38;;
64938;SDS011;51453;47.738;7.420;2023-03-16T00:04:21;10.90;;;7.15;;
64938;SDS011;51453;47.738;7.420;2023-03-16T00:06:47;9.52;;;6.75;;
64938;SDS011;51453;47.738;7.420;2023-03-16T00:09:13;9.25;;;5.95;;
64938;SDS011;51453;47.738;7.420;2023-03-16T00:11:38;7.90;;;5.10;;
64938;SDS011;51453;47.738;7.420;2023-03-16T00:14:04;11.27;;;5.28;;
64938;SDS011;51453;47.738;7.420;2023-03-16T00:16:29;8.40;;;5.00;;
64938;SDS011;51453;47.738;7.420;2023-03-16T00:18:55;8.60;;;4.95;;
64938;SDS011;51453;47.738;7.420;2023-03-16T00:21:22;8.57;;;4.55;;
64938;SDS011;51453;47.738;7.420;2023-03-16T00:23:48;8.57;;;5.00;;
64938;SDS011;51453;47.738;7.420;2023-03-16T00:26:14;10.93;;;5.32;;
64938;SDS011;51453;47.738;7.420;2023-03-16T00:28:39;12.05;;;5.10;;
64938;SDS011;51453;47.738;7.420;2023-03-16T00:31:07;10.80;;;4.97;;
64938;SDS011;51453;47.738;7.420;2023-03-16T00:33:36;9.30;;;4.50;;
64938;SDS011;51453;47.738;7.420;2023-03-16T00:36:07;11.48;;;4.82;;
64938;SDS011;51453;47.738;7.420;2023-03-16T00:38:36;10.43;;;5.15;;
64938;SDS011;51453;47.738;7.420;2023-03-16T00:41:04;7.47;;;4.93;;
64938;SDS011;51453;47.738;7.420;2023-03-16T00:43:32;7.57;;;5.38;;
64938;SDS011;51453;47.738;7.420;2023-03-16T00:46:08;11.10;;;6.25;;
64938;SDS011;51453;47.738;7.420;2023-03-16T00:48:37;9.57;;;6.63;;
64938;SDS011;51453;47.738;7.420;2023-03-16T00:51:05;10.10;;;6.70;;
64938;SDS011;51453;47.738;7.420;2023-03-16T00:53:35;9.45;;;6.75;;
64938;SDS011;51453;47.738;7.420;2023-03-16T00:56:01;13.75;;;7.25;;
64938;SDS011;51453;47.738;7.420;2023-03-16T00:58:29;19.67;;;9.68;;
64938;SDS011;51453;47.738;7.420;2023-03-16T01:01:00;30.10;;;12.57;;
64938;SDS011;51453;47.738;7.420;2023-03-16T01:03:30;28.60;;;12.55;;
64938;SDS011;51453;47.738;7.420;2023-03-16T01:05:56;32.08;;;13.82;;
64938;SDS011;51453;47.738;7.420;2023-03-16T01:08:24;24.55;;;11.90;;
64938;SDS011;51453;47.738;7.420;2023-03-16T01:10:53;23.05;;;10.90;;
64938;SDS011;51453;47.738;7.420;2023-03-16T01:13:19;27.63;;;12.52;;
64938;SDS011;51453;47.738;7.420;2023-03-16T01:15:45;30.42;;;13.20;;
64938;SDS011;51453;47.738;7.420;2023-03-16T01:18:12;26.40;;;13.38;;
64938;SDS011;51453;47.738;7.420;2023-03-16T01:20:38;31.63;;;13.82;;
64938;SDS011;51453;47.738;7.420;2023-03-16T01:23:04;39.17;;;15.90;;
64938;SDS011;51453;47.738;7.420;2023-03-16T01:25:29;43.53;;;17.52;;
64938;SDS011;51453;47.738;7.420;2023-03-16T01:27:56;40.33;;;16.58;;
64938;SDS011;51453;47.738;7.420;2023-03-16T01:30:22;27.77;;;13.45;;
64938;SDS011;51453;47.738;7.420;2023-03-16T01:32:48;27.17;;;13.20;;
64938;SDS011;51453;47.738;7.420;2023-03-16T01:35:13;24.55;;;12.15;;
64938;SDS011;51453;47.738;7.420;2023-03-16T01:37:39;19.00;;;10.10;;
64938;SDS011;51453;47.738;7.420;2023-03-16T01:40:05;19.17;;;9.38;;
64938;SDS011;51453;47.738;7.420;2023-03-16T01:42:45;16.67;;;8.90;;
64938;SDS011;51453;47.738;7.420;2023-03-16T01:48:17;15.32;;;8.57;;
64938;SDS011;51453;47.738;7.420;2023-03-16T01:50:43;15.40;;;9.05;;
64938;SDS011;51453;47.738;7.420;2023-03-16T01:53:09;18.50;;;9.65;;
64938;SDS011;51453;47.738;7.420;2023-03-16T01:55:35;17.83;;;9.98;;
64938;SDS011;51453;47.738;7.420;2023-03-16T01:58:02;21.40;;;10.60;;
64938;SDS011;51453;47.738;7.420;2023-03-16T02:00:28;18.35;;;10.80;;
64938;SDS011;51453;47.738;7.420;2023-03-16T02:02:56;20.40;;;11.80;;
64938;SDS011;51453;47.738;7.420;2023-03-16T02:05:37;21.15;;;11.88;;
64938;SDS011;51453;47.738;7.420;2023-03-16T02:08:13;18.63;;;11.48;;
64938;SDS011;51453;47.738;7.420;2023-03-16T02:10:38;17.10;;;11.23;;
64938;SDS011;51453;47.738;7.420;2023-03-16T02:13:05;15.77;;;10.05;;
64938;SDS011;51453;47.738;7.420;2023-03-16T02:15:31;16.88;;;10.50;;
64938;SDS011;51453;47.738;7.420;2023-03-16T02:17:59;17.17;;;11.20;;
64938;SDS011;51453;47.738;7.420;2023-03-16T02:23:00;16.63;;;10.35;;
64938;SDS011;51453;47.738;7.420;2023-03-16T02:31:12;10.70;;;7.80;;
64938;SDS011;51453;47.738;7.420;2023-03-16T02:33:39;12.23;;;7.88;;
64938;SDS011;51453;47.738;7.420;2023-03-16T02:36:07;12.57;;;7.75;;
64938;SDS011;51453;47.738;7.420;2023-03-16T02:38:32;13.07;;;7.88;;
64938;SDS011;51453;47.738;7.420;2023-03-16T02:40:59;12.73;;;8.25;;
64938;SDS011;51453;47.738;7.420;2023-03-16T02:43:35;15.57;;;8.60;;
64938;SDS011;51453;47.738;7.420;2023-03-16T02:46:04;12.38;;;8.07;;
64938;SDS011;51453;47.738;7.420;2023-03-16T02:48:39;13.50;;;8.40;;
64938;SDS011;51453;47.738;7.420;2023-03-16T02:51:07;14.52;;;8.50;;
64938;SDS011;51453;47.738;7.420;2023-03-16T02:53:33;13.10;;;8.55;;
64938;SDS011;51453;47.738;7.420;2023-03-16T02:55:59;17.92;;;9.63;;
64938;SDS011;51453;47.738;7.420;2023-03-16T02:58:26;13.57;;;8.65;;
64938;SDS011;51453;47.738;7.420;2023-03-16T03:00:53;13.77;;;8.65;;
64938;SDS011;51453;47.738;7.420;2023-03-16T03:03:21;17.92;;;10.10;;
64938;SDS011;51453;47.738;7.420;2023-03-16T03:05:46;15.73;;;9.18;;
64938;SDS011;51453;47.738;7.420;2023-03-16T03:08:12;19.05;;;10.88;;
64938;SDS011;51453;47.738;7.420;2023-03-16T03:10:39;13.32;;;9.52;;
64938;SDS011;51453;47.738;7.420;2023-03-16T03:13:05;17.73;;;10.73;;
64938;SDS011;51453;47.738;7.420;2023-03-16T03:15:33;18.77;;;11.55;;
64938;SDS011;51453;47.738;7.420;2023-03-16T03:17:59;16.13;;;11.00;;
64938;SDS011;51453;47.738;7.420;2023-03-16T03:20:25;17.83;;;11.18;;
64938;SDS011;51453;47.738;7.420;2023-03-16T03:22:51;18.40;;;10.95;;
64938;SDS011;51453;47.738;7.420;2023-03-16T03:25:17;18.23;;;10.50;;
64938;SDS011;51453;47.738;7.420;2023-03-16T03:27:45;18.23;;;10.55;;
64938;SDS011;51453;47.738;7.420;2023-03-16T03:30:14;14.60;;;9.60;;
64938;SDS011;51453;47.738;7.420;2023-03-16T03:32:47;15.23;;;9.75;;
64938;SDS011;51453;47.738;7.420;2023-03-16T03:35:13;16.25;;;10.15;;
64938;SDS011;51453;47.738;7.420;2023-03-16T03:37:40;15.50;;;10.30;;
64938;SDS011;51453;47.738;7.420;2023-03-16T03:40:07;16.70;;;9.98;;
64938;SDS011;51453;47.738;7.420;2023-03-16T03:42:35;16.52;;;9.77;;
64938;SDS011;51453;47.738;7.420;2023-03-16T03:45:01;18.83;;;10.10;;
64938;SDS011;51453;47.738;7.420;2023-03-16T03:47:27;16.25;;;8.48;;
64938;SDS011;51453;47.738;7.420;2023-03-16T03:49:53;11.50;;;7.97;;
64938;SDS011;51453;47.738;7.420;2023-03-16T03:52:18;12.00;;;8.38;;
64938;SDS011;51453;47.738;7.420;2023-03-16T03:54:44;12.88;;;8.18;;
64938;SDS011;51453;47.738;7.420;2023-03-16T03:57:10;12.60;;;7.70;;
64938;SDS011;51453;47.738;7.420;2023-03-16T03:59:36;12.75;;;7.88;;
64938;SDS011;51453;47.738;7.420;2023-03-16T04:02:07;10.25;;;6.75;;
64938;SDS011;51453;47.738;7.420;2023-03-16T04:04:35;11.95;;;6.63;;
64938;SDS011;51453;47.738;7.420;2023-03-16T04:07:01;10.68;;;7.00;;
64938;SDS011;51453;47.738;7.420;2023-03-16T04:09:27;11.18;;;6.80;;
64938;SDS011;51453;47.738;7.420;2023-03-16T04:11:53;10.30;;;6.72;;
64938;SDS011;51453;47.738;7.420;2023-03-16T04:14:21;11.00;;;5.88;;
64938;SDS011;51453;47.738;7.420;2023-03-16T04:16:48;11.88;;;6.88;;
64938;SDS011;51453;47.738;7.420;2023-03-16T04:19:13;9.60;;;6.55;;
64938;SDS011;51453;47.738;7.420;2023-03-16T04:21:39;10.65;;;6.25;;
64938;SDS011;51453;47.738;7.420;2023-03-16T04:24:05;10.07;;;6.30;;
64938;SDS011;51453;47.738;7.420;2023-03-16T04:26:31;10.85;;;6.35;;
64938;SDS011;51453;47.738;7.420;2023-03-16T04:28:57;9.77;;;6.22;;
64938;SDS011;51453;47.738;7.420;2023-03-16T04:31:23;11.20;;;6.15;;
64938;SDS011;51453;47.738;7.420;2023-03-16T04:33:48;9.85;;;5.78;;
64938;SDS011;51453;47.738;7.420;2023-03-16T04:36:18;9.93;;;6.22;;
64938;SDS011;51453;47.738;7.420;2023-03-16T04:38:53;10.27;;;5.80;;
64938;SDS011;51453;47.738;7.420;2023-03-16T04:41:19;12.90;;;5.88;;
64938;SDS011;51453;47.738;7.420;2023-03-16T04:43:45;9.68;;;5.70;;
64938;SDS011;51453;47.738;7.420;2023-03-16T04:46:10;10.25;;;4.95;;
64938;SDS011;51453;47.738;7.420;2023-03-16T04:48:36;9.07;;;5.18;;
64938;SDS011;51453;47.738;7.420;2023-03-16T04:51:02;6.85;;;4.88;;
64938;SDS011;51453;47.738;7.420;2023-03-16T04:53:31;7.15;;;4.55;;
64938;SDS011;51453;47.738;7.420;2023-03-16T04:55:57;7.30;;;4.57;;
64938;SDS011;51453;47.738;7.420;2023-03-16T04:58:23;9.27;;;4.80;;
64938;SDS011;51453;47.738;7.420;2023-03-16T05:00:53;8.15;;;4.63;;
64938;SDS011;51453;47.738;7.420;2023-03-16T05:03:22;8.32;;;5.00;;
64938;SDS011;51453;47.738;7.420;2023-03-16T05:05:48;10.60;;;4.85;;
64938;SDS011;51453;47.738;7.420;2023-03-16T05:08:14;8.55;;;4.63;;
64938;SDS011;51453;47.738;7.420;2023-03-16T05:10:39;8.70;;;4.93;;
64938;SDS011;51453;47.738;7.420;2023-03-16T05:13:05;7.57;;;4.63;;
64938;SDS011;51453;47.738;7.420;2023-03-16T05:15:31;12.15;;;4.78;;
64938;SDS011;51453;47.738;7.420;2023-03-16T05:17:58;10.82;;;5.28;;
64938;SDS011;51453;47.738;7.420;2023-03-16T05:20:24;7.93;;;5.07;;
64938;SDS011;51453;47.738;7.420;2023-03-16T05:22:50;10.50;;;5.25;;
64938;SDS011;51453;47.738;7.420;2023-03-16T05:25:16;6.88;;;4.65;;
64938;SDS011;51453;47.738;7.420;2023-03-16T05:27:52;6.93;;;4.22;;
64938;SDS011;51453;47.738;7.420;2023-03-16T05:30:18;6.78;;;4.30;;
64938;SDS011;51453;47.738;7.420;2023-03-16T05:32:44;9.88;;;4.50;;
64938;SDS011;51453;47.738;7.420;2023-03-16T05:35:11;7.22;;;4.18;;
64938;SDS011;51453;47.738;7.420;2023-03-16T05:37:40;9.93;;;4.50;;
64938;SDS011;51453;47.738;7.420;2023-03-16T05:40:07;7.82;;;4.28;;
64938;SDS011;51453;47.738;7.420;2023-03-16T05:42:41;10.45;;;3.95;;
64938;SDS011;51453;47.738;7.420;2023-03-16T05:45:08;9.20;;;4.20;;
64938;SDS011;51453;47.738;7.420;2023-03-16T05:47:34;28.20;;;7.47;;
64938;SDS011;51453;47.738;7.420;2023-03-16T05:50:01;8.10;;;4.65;;
64938;SDS011;51453;47.738;7.420;2023-03-16T05:52:28;9.20;;;5.10;;
64938;SDS011;51453;47.738;7.420;2023-03-16T05:54:53;8.02;;;4.97;;
64938;SDS011;51453;47.738;7.420;2023-03-16T05:57:19;8.25;;;4.63;;
64938;SDS011;51453;47.738;7.420;2023-03-16T05:59:44;8.88;;;4.68;;
64938;SDS011;51453;47.738;7.420;2023-03-16T06:02:10;9.13;;;4.30;;
64938;SDS011;51453;47.738;7.420;2023-03-16T06:04:36;7.80;;;4.78;;
64938;SDS011;51453;47.738;7.420;2023-03-16T06:07:01;8.75;;;5.20;;
64938;SDS011;51453;47.738;7.420;2023-03-16T06:09:27;10.52;;;4.93;;
64938;SDS011;51453;47.738;7.420;2023-03-16T06:11:53;9.95;;;4.90;;
64938;SDS011;51453;47.738;7.420;2023-03-16T06:14:19;11.27;;;4.90;;
64938;SDS011;51453;47.738;7.420;2023-03-16T06:16:45;7.85;;;4.75;;
64938;SDS011;51453;47.738;7.420;2023-03-16T06:19:10;11.23;;;5.43;;
64938;SDS011;51453;47.738;7.420;2023-03-16T06:21:36;9.10;;;4.72;;
64938;SDS011;51453;47.738;7.420;2023-03-16T06:24:02;7.65;;;4.53;;
64938;SDS011;51453;47.738;7.420;2023-03-16T06:26:27;9.27;;;5.03;;
64938;SDS011;51453;47.738;7.420;2023-03-16T06:28:53;9.18;;;5.45;;
64938;SDS011;51453;47.738;7.420;2023-03-16T06:31:19;12.90;;;7.10;;
64938;SDS011;51453;47.738;7.420;2023-03-16T06:33:45;15.25;;;7.55;;
64938;SDS011;51453;47.738;7.420;2023-03-16T06:36:11;12.55;;;6.10;;
64938;SDS011;51453;47.738;7.420;2023-03-16T06:38:37;9.30;;;5.45;;
64938;SDS011;51453;47.738;7.420;2023-03-16T06:41:03;8.98;;;5.57;;
64938;SDS011;51453;47.738;7.420;2023-03-16T06:43:28;8.93;;;5.60;;
64938;SDS011;51453;47.738;7.420;2023-03-16T06:45:54;13.93;;;6.43;;
64938;SDS011;51453;47.738;7.420;2023-03-16T06:48:20;9.38;;;5.70;;
64938;SDS011;51453;47.738;7.420;2023-03-16T06:50:45;8.23;;;5.20;;
64938;SDS011;51453;47.738;7.420;2023-03-16T06:53:11;11.77;;;5.72;;
64938;SDS011;51453;47.738;7.420;2023-03-16T06:55:37;13.52;;;6.60;;
64938;SDS011;51453;47.738;7.420;2023-03-16T06:58:03;11.27;;;6.32;;
64938;SDS011;51453;47.738;7.420;2023-03-16T07:00:28;11.45;;;6.78;;
64938;SDS011;51453;47.738;7.420;2023-03-16T07:02:55;16.95;;;6.15;;
64938;SDS011;51453;47.738;7.420;2023-03-16T07:05:21;11.20;;;5.93;;
64938;SDS011;51453;47.738;7.420;2023-03-16T07:07:46;10.93;;;5.72;;
64938;SDS011;51453;47.738;7.420;2023-03-16T07:10:13;10.52;;;5.57;;
64938;SDS011;51453;47.738;7.420;2023-03-16T07:12:41;7.65;;;4.07;;
64938;SDS011;51453;47.738;7.420;2023-03-16T07:15:07;5.63;;;3.05;;
64938;SDS011;51453;47.738;7.420;2023-03-16T07:17:33;7.97;;;3.42;;
64938;SDS011;51453;47.738;7.420;2023-03-16T07:19:59;5.68;;;3.20;;
64938;SDS011;51453;47.738;7.420;2023-03-16T07:22:29;8.32;;;2.97;;
64938;SDS011;51453;47.738;7.420;2023-03-16T07:24:56;8.25;;;2.95;;
64938;SDS011;51453;47.738;7.420;2023-03-16T07:27:23;6.28;;;3.00;;
64938;SDS011;51453;47.738;7.420;2023-03-16T07:29:49;4.32;;;2.70;;
64938;SDS011;51453;47.738;7.420;2023-03-16T07:32:16;4.97;;;2.50;;
64938;SDS011;51453;47.738;7.420;2023-03-16T07:34:42;7.10;;;2.40;;
64938;SDS011;51453;47.738;7.420;2023-03-16T07:37:07;6.28;;;2.30;;
64938;SDS011;51453;47.738;7.420;2023-03-16T07:39:34;4.47;;;2.40;;
64938;SDS011;51453;47.738;7.420;2023-03-16T07:42:00;6.95;;;2.63;;
64938;SDS011;51453;47.738;7.420;2023-03-16T07:44:26;5.43;;;3.05;;
64938;SDS011;51453;47.738;7.420;2023-03-16T07:46:52;4.18;;;2.40;;
64938;SDS011;51453;47.738;7.420;2023-03-16T07:49:18;4.45;;;2.33;;
64938;SDS011;51453;47.738;7.420;2023-03-16T07:51:43;6.70;;;2.45;;
64938;SDS011;51453;47.738;7.420;2023-03-16T07:54:10;6.03;;;2.42;;
64938;SDS011;51453;47.738;7.420;2023-03-16T07:56:35;8.27;;;2.72;;
64938;SDS011;51453;47.738;7.420;2023-03-16T07:59:01;6.28;;;2.63;;
64938;SDS011;51453;47.738;7.420;2023-03-16T08:01:28;6.65;;;2.67;;
64938;SDS011;51453;47.738;7.420;2023-03-16T08:03:53;6.25;;;2.40;;
64938;SDS011;51453;47.738;7.420;2023-03-16T08:06:19;5.18;;;1.95;;
64938;SDS011;51453;47.738;7.420;2023-03-16T08:08:45;3.45;;;1.88;;
64938;SDS011;51453;47.738;7.420;2023-03-16T08:11:11;6.20;;;2.42;;
64938;SDS011;51453;47.738;7.420;2023-03-16T08:13:37;6.25;;;2.28;;
64938;SDS011;51453;47.738;7.420;2023-03-16T08:16:03;2.40;;;1.90;;
64938;SDS011;51453;47.738;7.420;2023-03-16T08:18:29;2.85;;;2.00;;
64938;SDS011;51453;47.738;7.420;2023-03-16T08:20:56;4.28;;;1.80;;
64938;SDS011;51453;47.738;7.420;2023-03-16T08:23:23;4.95;;;1.73;;
64938;SDS011;51453;47.738;7.420;2023-03-16T08:25:53;5.15;;;1.90;;
64938;SDS011;51453;47.738;7.420;2023-03-16T08:28:20;4.25;;;1.83;;
64938;SDS011;51453;47.738;7.420;2023-03-16T08:30:46;3.03;;;1.50;;
64938;SDS011;51453;47.738;7.420;2023-03-16T08:33:14;4.20;;;1.52;;
64938;SDS011;51453;47.738;7.420;2023-03-16T08:35:43;4.32;;;1.67;;
64938;SDS011;51453;47.738;7.420;2023-03-16T08:38:12;2.45;;;1.40;;
64938;SDS011;51453;47.738;7.420;2023-03-16T08:40:39;3.20;;;1.42;;
64938;SDS011;51453;47.738;7.420;2023-03-16T08:43:12;3.78;;;1.10;;
64938;SDS011;51453;47.738;7.420;2023-03-16T08:45:39;3.63;;;1.50;;
64938;SDS011;51453;47.738;7.420;2023-03-16T08:48:05;2.70;;;1.10;;
64938;SDS011;51453;47.738;7.420;2023-03-16T08:50:31;2.58;;;1.45;;
64938;SDS011;51453;47.738;7.420;2023-03-16T08:52:57;2.97;;;1.27;;
64938;SDS011;51453;47.738;7.420;2023-03-16T08:55:23;2.40;;;1.30;;
64938;SDS011;51453;47.738;7.420;2023-03-16T08:57:50;2.92;;;1.27;;
64938;SDS011;51453;47.738;7.420;2023-03-16T09:00:16;3.75;;;1.60;;
64938;SDS011;51453;47.738;7.420;2023-03-16T09:02:42;4.78;;;1.30;;
64938;SDS011;51453;47.738;7.420;2023-03-16T09:05:09;1.95;;;1.20;;
64938;SDS011;51453;47.738;7.420;2023-03-16T09:07:36;3.42;;;1.10;;
64938;SDS011;51453;47.738;7.420;2023-03-16T09:10:03;3.92;;;1.40;;
64938;SDS011;51453;47.738;7.420;2023-03-16T09:12:31;6.03;;;1.48;;
64938;SDS011;51453;47.738;7.420;2023-03-16T09:15:00;2.15;;;1.33;;
64938;SDS011;51453;47.738;7.420;2023-03-16T09:17:26;2.65;;;1.00;;
64938;SDS011;51453;47.738;7.420;2023-03-16T09:19:52;1.98;;;1.20;;
64938;SDS011;51453;47.738;7.420;2023-03-16T09:22:19;2.90;;;1.23;;
64938;SDS011;51453;47.738;7.420;2023-03-16T09:24:46;2.47;;;1.42;;
64938;SDS011;51453;47.738;7.420;2023-03-16T09:27:12;2.45;;;1.33;;
64938;SDS011;51453;47.738;7.420;2023-03-16T09:29:39;2.38;;;1.42;;
64938;SDS011;51453;47.738;7.420;2023-03-16T09:32:06;4.63;;;1.50;;
64938;SDS011;51453;47.738;7.420;2023-03-16T09:34:33;2.20;;;1.30;;
64938;SDS011;51453;47.738;7.420;2023-03-16T09:36:59;1.45;;;1.30;;
64938;SDS011;51453;47.738;7.420;2023-03-16T09:39:25;3.85;;;1.42;;
64938;SDS011;51453;47.738;7.420;2023-03-16T09:46:44;2.33;;;1.67;;
64938;SDS011;51453;47.738;7.420;2023-03-16T09:49:14;3.65;;;1.85;;
64938;SDS011;51453;47.738;7.420;2023-03-16T09:57:35;4.05;;;1.63;;
64938;SDS011;51453;47.738;7.420;2023-03-16T10:00:17;2.45;;;1.73;;
64938;SDS011;51453;47.738;7.420;2023-03-16T10:05:33;2.35;;;1.15;;
64938;SDS011;51453;47.738;7.420;2023-03-16T10:08:09;1.55;;;1.17;;
64938;SDS011;51453;47.738;7.420;2023-03-16T10:13:19;1.90;;;0.90;;
64938;SDS011;51453;47.738;7.420;2023-03-16T10:15:57;1.85;;;1.20;;
64938;SDS011;51453;47.738;7.420;2023-03-16T10:18:28;2.38;;;0.90;;
64938;SDS011;51453;47.738;7.420;2023-03-16T10:20:59;1.75;;;1.02;;
64938;SDS011;51453;47.738;7.420;2023-03-16T10:23:26;1.65;;;0.98;;
64938;SDS011;51453;47.738;7.420;2023-03-16T10:25:55;1.55;;;1.00;;
64938;SDS011;51453;47.738;7.420;2023-03-16T10:28:22;1.55;;;0.93;;
64938;SDS011;51453;47.738;7.420;2023-03-16T10:30:51;2.15;;;0.77;;
64938;SDS011;51453;47.738;7.420;2023-03-16T10:33:26;1.73;;;1.08;;
64938;SDS011;51453;47.738;7.420;2023-03-16T10:38:36;3.90;;;1.00;;
64938;SDS011;51453;47.738;7.420;2023-03-16T10:46:26;2.03;;;1.00;;
64938;SDS011;51453;47.738;7.420;2023-03-16T10:48:53;1.70;;;0.93;;
64938;SDS011;51453;47.738;7.420;2023-03-16T10:51:24;1.70;;;0.85;;
64938;SDS011;51453;47.738;7.420;2023-03-16T10:53:57;2.10;;;0.98;;
64938;SDS011;51453;47.738;7.420;2023-03-16T10:56:34;2.28;;;1.00;;
64938;SDS011;51453;47.738;7.420;2023-03-16T10:59:01;2.92;;;1.42;;
64938;SDS011;51453;47.738;7.420;2023-03-16T11:01:47;1.10;;;0.90;;
64938;SDS011;51453;47.738;7.420;2023-03-16T11:04:14;1.13;;;0.77;;
64938;SDS011;51453;47.738;7.420;2023-03-16T11:06:54;2.25;;;1.00;;
64938;SDS011;51453;47.738;7.420;2023-03-16T11:09:23;1.38;;;1.25;;
64938;SDS011;51453;47.738;7.420;2023-03-16T11:11:49;1.40;;;1.30;;
64938;SDS011;51453;47.738;7.420;2023-03-16T11:14:17;3.30;;;1.20;;
64938;SDS011;51453;47.738;7.420;2023-03-16T11:19:30;3.45;;;1.10;;
64938;SDS011;51453;47.738;7.420;2023-03-16T11:30:12;2.47;;;1.30;;
64938;SDS011;51453;47.738;7.420;2023-03-16T11:32:59;3.03;;;1.25;;
64938;SDS011;51453;47.738;7.420;2023-03-16T11:38:12;1.10;;;0.80;;
64938;SDS011;51453;47.738;7.420;2023-03-16T11:46:49;2.03;;;1.20;;
64938;SDS011;51453;47.738;7.420;2023-03-16T11:54:57;1.25;;;1.10;;
64938;SDS011;51453;47.738;7.420;2023-03-16T11:58:02;2.60;;;0.95;;
64938;SDS011;51453;47.738;7.420;2023-03-16T12:00:50;1.50;;;0.98;;
64938;SDS011;51453;47.738;7.420;2023-03-16T12:11:58;2.30;;;0.90;;
64938;SDS011;51453;47.738;7.420;2023-03-16T12:15:11;1.10;;;1.00;;
64938;SDS011;51453;47.738;7.420;2023-03-16T12:17:33;2.30;;;1.08;;
64938;SDS011;51453;47.738;7.420;2023-03-16T12:25:28;1.80;;;0.90;;
64938;SDS011;51453;47.738;7.420;2023-03-16T12:28:10;1.52;;;0.85;;
64938;SDS011;51453;47.738;7.420;2023-03-16T12:33:47;1.88;;;1.20;;
64938;SDS011;51453;47.738;7.420;2023-03-16T12:45:02;1.88;;;1.15;;
64938;SDS011;51453;47.738;7.420;2023-03-16T12:50:28;2.95;;;1.05;;
64938;SDS011;51453;47.738;7.420;2023-03-16T12:52:54;3.53;;;1.08;;
64938;SDS011;51453;47.738;7.420;2023-03-16T12:57:58;1.40;;;1.02;;
64938;SDS011;51453;47.738;7.420;2023-03-16T13:00:32;2.33;;;1.02;;
64938;SDS011;51453;47.738;7.420;2023-03-16T13:03:00;1.20;;;0.90;;
64938;SDS011;51453;47.738;7.420;2023-03-16T13:05:33;2.05;;;1.35;;
64938;SDS011;51453;47.738;7.420;2023-03-16T13:08:07;2.05;;;1.10;;
64938;SDS011;51453;47.738;7.420;2023-03-16T13:10:36;2.13;;;1.00;;
64938;SDS011;51453;47.738;7.420;2023-03-16T13:13:12;2.55;;;1.27;;
64938;SDS011;51453;47.738;7.420;2023-03-16T13:15:43;2.70;;;0.95;;
64938;SDS011;51453;47.738;7.420;2023-03-16T13:20:53;1.15;;;1.00;;
64938;SDS011;51453;47.738;7.420;2023-03-16T13:26:11;1.33;;;0.90;;
64938;SDS011;51453;47.738;7.420;2023-03-16T13:28:43;0.80;;;0.80;;
64938;SDS011;51453;47.738;7.420;2023-03-16T13:31:35;2.28;;;1.08;;
64938;SDS011;51453;47.738;7.420;2023-03-16T13:34:05;2.20;;;1.48;;
64938;SDS011;51453;47.738;7.420;2023-03-16T13:39:09;1.63;;;1.05;;
64938;SDS011;51453;47.738;7.420;2023-03-16T13:41:54;2.00;;;1.10;;
64938;SDS011;51453;47.738;7.420;2023-03-16T13:44:26;1.90;;;1.10;;
64938;SDS011;51453;47.738;7.420;2023-03-16T13:46:52;2.25;;;1.48;;
64938;SDS011;51453;47.738;7.420;2023-03-16T13:49:18;1.67;;;1.20;;
64938;SDS011;51453;47.738;7.420;2023-03-16T13:51:44;1.27;;;1.17;;
64938;SDS011;51453;47.738;7.420;2023-03-16T13:56:45;2.28;;;1.10;;
64938;SDS011;51453;47.738;7.420;2023-03-16T13:59:11;2.35;;;1.10;;
64938;SDS011;51453;47.738;7.420;2023-03-16T14:01:38;2.55;;;1.10;;
64938;SDS011;51453;47.738;7.420;2023-03-16T14:06:37;1.75;;;1.00;;
64938;SDS011;51453;47.738;7.420;2023-03-16T14:09:05;1.17;;;0.80;;
64938;SDS011;51453;47.738;7.420;2023-03-16T14:11:39;1.00;;;0.90;;
64938;SDS011;51453;47.738;7.420;2023-03-16T14:14:18;2.38;;;1.00;;
64938;SDS011;51453;47.738;7.420;2023-03-16T14:17:01;0.63;;;0.60;;
64938;SDS011;51453;47.738;7.420;2023-03-16T14:19:37;2.97;;;0.80;;
64938;SDS011;51453;47.738;7.420;2023-03-16T14:22:14;2.97;;;1.08;;
64938;SDS011;51453;47.738;7.420;2023-03-16T14:24:51;1.60;;;1.15;;
64938;SDS011;51453;47.738;7.420;2023-03-16T14:27:28;1.20;;;0.93;;
64938;SDS011;51453;47.738;7.420;2023-03-16T14:30:18;1.25;;;1.10;;
64938;SDS011;51453;47.738;7.420;2023-03-16T14:33:21;3.13;;;1.33;;
64938;SDS011;51453;47.738;7.420;2023-03-16T14:35:54;1.45;;;1.00;;
64938;SDS011;51453;47.738;7.420;2023-03-16T14:38:25;3.67;;;1.25;;
64938;SDS011;51453;47.738;7.420;2023-03-16T14:41:00;2.40;;;1.20;;
64938;SDS011;51453;47.738;7.420;2023-03-16T14:43:36;2.10;;;1.27;;
64938;SDS011;51453;47.738;7.420;2023-03-16T14:46:09;1.85;;;1.48;;
64938;SDS011;51453;47.738;7.420;2023-03-16T14:48:39;1.85;;;1.50;;
64938;SDS011;51453;47.738;7.420;2023-03-16T14:51:05;2.83;;;1.40;;
64938;SDS011;51453;47.738;7.420;2023-03-16T14:53:36;2.60;;;1.35;;
64938;SDS011;51453;47.738;7.420;2023-03-16T14:56:02;2.25;;;1.15;;
64938;SDS011;51453;47.738;7.420;2023-03-16T14:58:28;3.15;;;1.65;;
64938;SDS011;51453;47.738;7.420;2023-03-16T15:00:53;2.28;;;1.30;;
64938;SDS011;51453;47.738;7.420;2023-03-16T15:03:21;1.42;;;1.30;;
64938;SDS011;51453;47.738;7.420;2023-03-16T15:05:54;2.92;;;1.33;;
64938;SDS011;51453;47.738;7.420;2023-03-16T15:08:27;1.38;;;1.27;;
64938;SDS011;51453;47.738;7.420;2023-03-16T15:11:03;3.28;;;1.00;;
64938;SDS011;51453;47.738;7.420;2023-03-16T15:13:30;3.10;;;1.30;;
64938;SDS011;51453;47.738;7.420;2023-03-16T15:16:16;1.85;;;1.10;;
64938;SDS011;51453;47.738;7.420;2023-03-16T15:18:43;3.13;;;1.25;;
64938;SDS011;51453;47.738;7.420;2023-03-16T15:21:31;2.35;;;1.30;;
64938;SDS011;51453;47.738;7.420;2023-03-16T15:23:55;1.38;;;1.10;;
64938;SDS011;51453;47.738;7.420;2023-03-16T15:26:23;1.77;;;1.20;;
64938;SDS011;51453;47.738;7.420;2023-03-16T15:28:51;3.35;;;1.30;;
64938;SDS011;51453;47.738;7.420;2023-03-16T15:31:20;3.72;;;1.20;;
64938;SDS011;51453;47.738;7.420;2023-03-16T15:33:47;1.05;;;0.95;;
64938;SDS011;51453;47.738;7.420;2023-03-16T15:36:19;1.40;;;1.10;;
64938;SDS011;51453;47.738;7.420;2023-03-16T15:38:50;1.55;;;1.13;;
64938;SDS011;51453;47.738;7.420;2023-03-16T15:41:18;2.40;;;1.00;;
64938;SDS011;51453;47.738;7.420;2023-03-16T15:43:44;2.35;;;1.10;;
64938;SDS011;51453;47.738;7.420;2023-03-16T15:46:10;1.10;;;0.90;;
64938;SDS011;51453;47.738;7.420;2023-03-16T15:48:36;2.55;;;1.20;;
64938;SDS011;51453;47.738;7.420;2023-03-16T15:51:04;1.48;;;0.90;;
64938;SDS011;51453;47.738;7.420;2023-03-16T15:53:41;2.80;;;1.17;;
64938;SDS011;51453;47.738;7.420;2023-03-16T15:56:11;1.33;;;1.10;;
64938;SDS011;51453;47.738;7.420;2023-03-16T15:58:41;2.08;;;1.30;;
64938;SDS011;51453;47.738;7.420;2023-03-16T16:01:16;2.80;;;1.33;;
64938;SDS011;51453;47.738;7.420;2023-03-16T16:03:46;2.13;;;1.38;;
64938;SDS011;51453;47.738;7.420;2023-03-16T16:06:12;2.75;;;1.33;;
64938;SDS011;51453;47.738;7.420;2023-03-16T16:08:38;1.88;;;1.40;;
64938;SDS011;51453;47.738;7.420;2023-03-16T16:11:05;4.05;;;1.50;;
64938;SDS011;51453;47.738;7.420;2023-03-16T16:13:39;2.47;;;1.40;;
64938;SDS011;51453;47.738;7.420;2023-03-16T16:16:05;2.47;;;1.33;;
64938;SDS011;51453;47.738;7.420;2023-03-16T16:18:37;3.78;;;1.30;;
64938;SDS011;51453;47.738;7.420;2023-03-16T16:21:04;2.45;;;1.20;;
64938;SDS011;51453;47.738;7.420;2023-03-16T16:23:32;1.95;;;1.40;;
64938;SDS011;51453;47.738;7.420;2023-03-16T16:26:03;2.85;;;1.75;;
64938;SDS011;51453;47.738;7.420;2023-03-16T16:28:32;5.57;;;2.08;;
64938;SDS011;51453;47.738;7.420;2023-03-16T16:30:59;3.08;;;1.40;;
64938;SDS011;51453;47.738;7.420;2023-03-16T16:35:54;2.65;;;1.20;;
64938;SDS011;51453;47.738;7.420;2023-03-16T16:38:22;2.88;;;1.60;;
64938;SDS011;51453;47.738;7.420;2023-03-16T16:40:48;3.65;;;1.35;;